createdAt,value
2022-09-27T00:00:37.698Z,12.35
2022-09-27T00:01:40.801Z,12.23
2022-09-27T00:02:43.579Z,12.27
2022-09-27T00:03:46.313Z,12.28
2022-09-27T00:04:49.185Z,12.25
2022-09-27T00:06:21.542Z,12.25
2022-09-27T00:07:24.449Z,12.31
2022-09-27T00:08:27.235Z,12.17
2022-09-27T00:09:30.440Z,12.20
2022-09-27T00:10:33.124Z,12.19
2022-09-27T00:11:39.377Z,12.23
2022-09-27T00:12:42.498Z,12.23
2022-09-27T00:13:45.456Z,12.22
2022-09-27T00:14:48.201Z,12.21
2022-09-27T00:15:57.372Z,12.28
2022-09-27T00:17:00.252Z,12.25
2022-09-27T00:18:03.061Z,12.27
2022-09-27T00:19:14.438Z,12.28
2022-09-27T00:20:17.285Z,12.35
2022-09-27T00:21:20.294Z,12.24
2022-09-27T00:22:24.389Z,12.20
2022-09-27T00:23:27.146Z,12.21
2022-09-27T00:24:29.862Z,12.27
2022-09-27T00:25:32.714Z,12.26
2022-09-27T00:26:35.845Z,12.38
2022-09-27T00:27:38.511Z,12.32
2022-09-27T00:28:41.723Z,12.38
2022-09-27T00:29:45.462Z,12.45
2022-09-27T00:30:48.186Z,12.37
2022-09-27T00:31:51.015Z,12.33
2022-09-27T00:32:54.151Z,12.39
2022-09-27T00:34:01.364Z,12.28
2022-09-27T00:35:04.660Z,12.26
2022-09-27T00:36:07.564Z,12.23
2022-09-27T00:37:11.623Z,12.28
2022-09-27T00:38:14.527Z,12.29
2022-09-27T00:39:17.931Z,12.27
2022-09-27T00:40:24.420Z,12.25
2022-09-27T00:41:34.254Z,12.26
2022-09-27T00:42:37.226Z,12.29
2022-09-27T00:43:52.388Z,12.30
2022-09-27T00:45:07.202Z,12.25
2022-09-27T00:46:12.166Z,12.34
2022-09-27T00:47:45.923Z,12.31
2022-09-27T00:49:02.351Z,12.40
2022-09-27T00:50:11.099Z,12.35
2022-09-27T00:51:14.482Z,12.25
2022-09-27T00:52:24.501Z,12.37
2022-09-27T00:53:31.644Z,12.29
2022-09-27T00:54:38.097Z,12.37
2022-09-27T00:56:10.315Z,12.32
2022-09-27T00:57:13.279Z,12.29
2022-09-27T00:58:22.002Z,12.34
2022-09-27T00:59:34.142Z,12.33
2022-09-27T01:00:40.093Z,12.38
2022-09-27T01:01:43.493Z,12.31
2022-09-27T01:02:50.267Z,12.33
2022-09-27T01:04:00.047Z,12.27
2022-09-27T01:05:05.052Z,12.31
2022-09-27T01:06:09.582Z,12.28
2022-09-27T01:07:12.385Z,12.33
2022-09-27T01:08:15.102Z,12.38
2022-09-27T01:09:18.564Z,12.28
2022-09-27T01:10:23.059Z,12.32
2022-09-27T01:11:47.096Z,12.27
2022-09-27T01:13:07.445Z,12.18
2022-09-27T01:14:22.035Z,12.17
2022-09-27T01:15:43.988Z,12.13
2022-09-27T01:17:07.844Z,12.14
2022-09-27T01:18:27.838Z,12.16
2022-09-27T01:20:06.252Z,12.25
2022-09-27T01:21:11.705Z,12.03
2022-09-27T01:22:37.768Z,11.95
2022-09-27T01:24:01.415Z,11.99
2022-09-27T01:25:33.271Z,11.97
2022-09-27T01:26:41.971Z,12.02
2022-09-27T01:28:07.550Z,11.98
2022-09-27T01:29:22.162Z,12.02
2022-09-27T01:30:37.204Z,12.12
2022-09-27T01:31:51.680Z,12.09
2022-09-27T01:33:07.966Z,12.14
2022-09-27T01:34:31.371Z,12.16
2022-09-27T01:36:17.297Z,12.04
2022-09-27T01:37:32.272Z,12.00
2022-09-27T01:39:12.503Z,12.03
2022-09-27T01:40:30.253Z,12.04
2022-09-27T01:41:43.545Z,11.99
2022-09-27T01:43:10.476Z,12.02
2022-09-27T01:44:24.924Z,11.99
2022-09-27T01:45:37.419Z,12.02
2022-09-27T01:46:52.682Z,12.18
2022-09-27T01:48:00.712Z,12.10
2022-09-27T01:49:09.696Z,12.12
2022-09-27T01:50:26.446Z,12.00
2022-09-27T01:51:57.241Z,11.91
2022-09-27T01:53:08.079Z,11.82
2022-09-27T01:54:16.382Z,11.85
2022-09-27T01:55:23.997Z,11.98
2022-09-27T01:56:37.555Z,11.96
2022-09-27T01:57:46.609Z,11.90
2022-09-27T01:59:32.734Z,11.86
2022-09-27T02:00:37.162Z,11.83
2022-09-27T02:01:43.517Z,11.83
2022-09-27T02:02:59.511Z,11.84
2022-09-27T02:04:04.703Z,11.84
2022-09-27T02:05:10.378Z,11.79
2022-09-27T02:06:24.690Z,11.82
2022-09-27T02:07:50.300Z,11.74
2022-09-27T02:09:12.121Z,11.35
2022-09-27T02:10:32.865Z,11.12
2022-09-27T02:11:39.096Z,11.29
2022-09-27T02:12:52.111Z,11.43
2022-09-27T02:13:58.398Z,11.42
2022-09-27T02:15:13.034Z,11.45
2022-09-27T02:16:30.111Z,11.50
2022-09-27T02:17:48.226Z,11.43
2022-09-27T02:18:57.142Z,11.27
2022-09-27T02:20:05.633Z,11.22
2022-09-27T02:21:12.535Z,11.37
2022-09-27T02:22:44.812Z,11.37
2022-09-27T02:23:58.343Z,11.35
2022-09-27T02:25:25.196Z,11.29
2022-09-27T02:26:31.575Z,11.35
2022-09-27T02:27:40.666Z,11.20
2022-09-27T02:29:00.413Z,11.29
2022-09-27T02:30:12.200Z,11.16
2022-09-27T02:31:15.055Z,11.02
2022-09-27T02:32:17.915Z,11.00
2022-09-27T02:33:25.245Z,11.05
2022-09-27T02:34:31.816Z,11.01
2022-09-27T02:35:36.151Z,11.00
2022-09-27T02:36:39.012Z,11.00
2022-09-27T02:37:41.936Z,10.83
2022-09-27T02:38:45.225Z,10.90
2022-09-27T02:39:48.347Z,10.99
2022-09-27T02:40:51.383Z,11.05
2022-09-27T02:41:58.555Z,10.97
2022-09-27T02:43:04.093Z,10.96
2022-09-27T02:44:12.422Z,10.98
2022-09-27T02:45:18.465Z,11.02
2022-09-27T02:46:39.694Z,10.90
2022-09-27T02:48:28.962Z,10.96
2022-09-27T02:49:56.193Z,10.87
2022-09-27T02:51:25.359Z,10.78
2022-09-27T02:52:43.861Z,10.73
2022-09-27T02:53:49.390Z,10.58
2022-09-27T02:55:06.767Z,10.60
2022-09-27T02:56:33.395Z,10.58
2022-09-27T02:58:04.396Z,10.62
2022-09-27T02:59:16.405Z,10.66
2022-09-27T03:00:31.468Z,10.72
2022-09-27T03:02:13.556Z,10.75
2022-09-27T03:03:49.417Z,10.60
2022-09-27T03:05:01.667Z,10.59
2022-09-27T03:06:08.751Z,10.55
2022-09-27T03:07:12.972Z,10.63
2022-09-27T03:08:16.120Z,10.61
2022-09-27T03:09:24.512Z,10.56
2022-09-27T03:10:29.295Z,10.64
2022-09-27T03:11:33.713Z,10.62
2022-09-27T03:12:36.456Z,10.64
2022-09-27T03:13:55.901Z,10.66
2022-09-27T03:15:02.783Z,10.70
2022-09-27T03:16:06.889Z,10.80
2022-09-27T03:17:09.698Z,10.66
2022-09-27T03:18:12.463Z,10.70
2022-09-27T03:19:15.155Z,10.68
2022-09-27T03:20:18.150Z,10.67
2022-09-27T03:21:20.799Z,10.68
2022-09-27T03:22:23.513Z,10.78
2022-09-27T03:23:26.708Z,10.73
2022-09-27T03:24:29.529Z,10.74
2022-09-27T03:25:32.242Z,10.79
2022-09-27T03:26:35.133Z,10.76
2022-09-27T03:27:37.830Z,10.84
2022-09-27T03:28:40.504Z,10.82
2022-09-27T03:29:43.192Z,10.82
2022-09-27T03:30:46.826Z,10.80
2022-09-27T03:31:49.619Z,10.79
2022-09-27T03:32:52.226Z,10.78
2022-09-27T03:33:55.018Z,10.80
2022-09-27T03:34:57.740Z,10.84
2022-09-27T03:36:00.655Z,10.86
2022-09-27T03:37:03.457Z,10.73
2022-09-27T03:38:07.680Z,10.79
2022-09-27T03:39:10.313Z,10.83
2022-09-27T03:40:13.406Z,10.82
2022-09-27T03:41:16.064Z,10.79
2022-09-27T03:42:18.677Z,10.75
2022-09-27T03:43:21.463Z,10.86
2022-09-27T03:44:24.157Z,10.91
2022-09-27T03:45:26.716Z,10.94
2022-09-27T03:46:29.714Z,10.97
2022-09-27T03:47:32.416Z,10.89
2022-09-27T03:48:35.333Z,10.85
2022-09-27T03:49:37.974Z,10.85
2022-09-27T03:50:40.674Z,10.88
2022-09-27T03:51:43.442Z,10.86
2022-09-27T03:52:46.119Z,10.89
2022-09-27T03:53:49.676Z,10.83
2022-09-27T03:54:52.730Z,10.83
2022-09-27T03:55:55.357Z,10.80
2022-09-27T03:56:58.210Z,10.76
2022-09-27T03:58:01.111Z,10.72
2022-09-27T03:59:04.022Z,10.81
2022-09-27T04:00:07.172Z,10.80
2022-09-27T04:01:10.240Z,10.87
2022-09-27T04:02:12.936Z,10.79
2022-09-27T04:03:15.683Z,10.87
2022-09-27T04:04:18.911Z,10.74
2022-09-27T04:05:21.719Z,10.73
2022-09-27T04:06:24.405Z,10.70
2022-09-27T04:07:27.054Z,10.65
2022-09-27T04:08:30.405Z,10.67
2022-09-27T04:09:32.981Z,10.62
2022-09-27T04:10:37.076Z,10.62
2022-09-27T04:11:39.821Z,10.78
2022-09-27T04:12:42.657Z,10.83
2022-09-27T04:13:45.517Z,10.78
2022-09-27T04:14:48.212Z,10.86
2022-09-27T04:15:52.442Z,10.87
2022-09-27T04:16:55.857Z,10.81
2022-09-27T04:17:58.591Z,10.82
2022-09-27T04:19:02.399Z,10.74
2022-09-27T04:20:05.477Z,10.62
2022-09-27T04:21:08.713Z,10.68
2022-09-27T04:22:11.338Z,10.58
2022-09-27T04:23:14.004Z,10.62
2022-09-27T04:24:16.744Z,10.64
2022-09-27T04:25:19.470Z,10.67
2022-09-27T04:26:22.539Z,10.59
2022-09-27T04:27:25.266Z,10.59
2022-09-27T04:28:29.994Z,10.61
2022-09-27T04:29:33.096Z,10.55
2022-09-27T04:30:35.745Z,10.52
2022-09-27T04:31:38.683Z,10.59
2022-09-27T04:32:45.233Z,10.59
2022-09-27T04:33:47.899Z,10.62
2022-09-27T04:35:09.442Z,10.60
2022-09-27T04:36:28.065Z,10.57
2022-09-27T04:37:30.961Z,10.34
2022-09-27T04:38:33.957Z,10.37
2022-09-27T04:39:37.082Z,10.54
2022-09-27T04:40:39.855Z,10.56
2022-09-27T04:41:42.487Z,10.59
2022-09-27T04:42:45.153Z,10.60
2022-09-27T04:43:48.306Z,10.59
2022-09-27T04:44:50.974Z,10.54
2022-09-27T04:45:53.693Z,10.44
2022-09-27T04:46:56.576Z,10.56
2022-09-27T04:47:59.263Z,10.61
2022-09-27T04:49:02.171Z,10.53
2022-09-27T04:50:05.029Z,10.52
2022-09-27T04:51:07.857Z,10.44
2022-09-27T04:52:10.524Z,10.29
2022-09-27T04:53:16.476Z,10.34
2022-09-27T04:54:19.075Z,10.32
2022-09-27T04:55:22.526Z,10.39
2022-09-27T04:56:25.573Z,10.48
2022-09-27T04:57:28.368Z,10.33
2022-09-27T04:58:31.205Z,10.36
2022-09-27T04:59:33.988Z,10.46
2022-09-27T05:00:36.681Z,10.51
2022-09-27T05:01:39.801Z,10.58
2022-09-27T05:02:48.610Z,10.56
2022-09-27T05:03:51.319Z,10.56
2022-09-27T05:04:58.206Z,10.61
2022-09-27T05:06:01.313Z,10.67
2022-09-27T05:07:05.226Z,10.80
2022-09-27T05:08:08.022Z,10.87
2022-09-27T05:09:10.953Z,11.02
2022-09-27T05:10:13.800Z,11.08
2022-09-27T05:11:16.435Z,11.24
2022-09-27T05:12:19.605Z,11.29
2022-09-27T05:13:22.760Z,11.38
2022-09-27T05:15:34.581Z,11.39
2022-09-27T05:16:37.515Z,11.42
2022-09-27T05:17:40.269Z,11.49
2022-09-27T05:18:42.934Z,11.48
2022-09-27T05:19:45.636Z,11.41
2022-09-27T05:20:48.302Z,11.47
2022-09-27T05:21:51.019Z,11.55
2022-09-27T05:22:53.939Z,11.67
2022-09-27T05:23:56.739Z,11.68
2022-09-27T05:24:59.919Z,11.65
2022-09-27T05:26:07.250Z,11.78
2022-09-27T05:27:18.636Z,11.93
2022-09-27T05:28:21.502Z,11.97
2022-09-27T05:29:24.246Z,12.01
2022-09-27T05:30:27.805Z,12.14
2022-09-27T05:31:30.555Z,12.26
2022-09-27T05:32:33.322Z,12.24
2022-09-27T05:33:36.057Z,12.30
2022-09-27T05:34:38.950Z,12.32
2022-09-27T05:35:45.511Z,12.41
2022-09-27T05:36:48.741Z,12.43
2022-09-27T05:37:56.359Z,12.41
2022-09-27T05:38:59.127Z,12.45
2022-09-27T05:40:16.864Z,12.48
2022-09-27T05:41:25.649Z,12.43
2022-09-27T05:42:28.433Z,12.53
2022-09-27T05:43:31.900Z,12.56
2022-09-27T05:44:35.570Z,12.62
2022-09-27T05:45:44.535Z,12.65
2022-09-27T05:46:47.245Z,12.71
2022-09-27T05:47:57.732Z,12.68
2022-09-27T05:49:00.456Z,12.72
2022-09-27T05:50:03.326Z,12.69
2022-09-27T05:51:06.436Z,12.79
2022-09-27T05:52:13.237Z,12.82
2022-09-27T05:53:18.875Z,12.83
2022-09-27T05:54:21.419Z,12.88
2022-09-27T05:55:24.357Z,13.05
2022-09-27T05:56:27.029Z,13.07
2022-09-27T05:57:29.685Z,13.00
2022-09-27T05:58:32.369Z,12.99
2022-09-27T05:59:35.035Z,12.93
2022-09-27T06:00:38.655Z,12.99
2022-09-27T06:01:41.489Z,13.09
2022-09-27T06:02:44.564Z,13.17
2022-09-27T06:03:47.897Z,13.17
2022-09-27T06:04:50.514Z,13.24
2022-09-27T06:05:53.300Z,13.35
2022-09-27T06:06:59.345Z,13.30
2022-09-27T06:08:12.984Z,13.43
2022-09-27T06:09:17.217Z,13.60
2022-09-27T06:10:20.999Z,13.60
2022-09-27T06:11:23.891Z,13.67
2022-09-27T06:12:26.584Z,13.65
2022-09-27T06:13:29.200Z,13.43
2022-09-27T06:14:31.774Z,13.49
2022-09-27T06:15:37.502Z,13.51
2022-09-27T06:16:40.691Z,13.56
2022-09-27T06:17:43.454Z,13.61
2022-09-27T06:18:46.383Z,13.69
2022-09-27T06:19:49.571Z,13.76
2022-09-27T06:20:52.572Z,13.76
2022-09-27T06:21:55.134Z,13.64
2022-09-27T06:23:18.647Z,13.70
2022-09-27T06:24:21.469Z,13.78
2022-09-27T06:25:24.609Z,13.77
2022-09-27T06:26:27.560Z,13.83
2022-09-27T06:27:33.318Z,13.76
2022-09-27T06:28:36.000Z,13.64
2022-09-27T06:29:38.826Z,13.67
2022-09-27T06:30:47.482Z,13.61
2022-09-27T06:31:50.090Z,13.80
2022-09-27T06:33:00.738Z,13.67
2022-09-27T06:34:03.488Z,13.82
2022-09-27T06:35:07.226Z,13.86
2022-09-27T06:36:10.234Z,13.87
2022-09-27T06:37:13.061Z,13.88
2022-09-27T06:38:18.464Z,13.99
2022-09-27T06:39:21.157Z,14.07
2022-09-27T06:40:27.509Z,14.09
2022-09-27T06:41:30.967Z,14.25
2022-09-27T06:42:33.770Z,14.22
2022-09-27T06:43:37.224Z,14.25
2022-09-27T06:44:40.135Z,14.25
2022-09-27T06:45:43.052Z,14.22
2022-09-27T06:46:45.956Z,14.14
2022-09-27T06:47:48.694Z,14.13
2022-09-27T06:48:51.243Z,14.13
2022-09-27T06:49:53.923Z,14.14
2022-09-27T06:50:57.663Z,14.17
2022-09-27T06:52:00.691Z,14.32
2022-09-27T06:53:05.513Z,14.40
2022-09-27T06:54:08.099Z,14.33
2022-09-27T06:55:11.037Z,14.35
2022-09-27T06:56:13.948Z,14.15
2022-09-27T06:57:36.498Z,14.27
2022-09-27T06:58:57.881Z,14.32
2022-09-27T07:00:19.274Z,14.41
2022-09-27T07:01:22.005Z,14.48
2022-09-27T07:02:27.707Z,14.41
2022-09-27T07:03:40.116Z,14.45
2022-09-27T07:04:44.041Z,14.38
2022-09-27T07:06:03.664Z,14.42
2022-09-27T07:07:06.420Z,14.32
2022-09-27T07:08:12.558Z,14.44
2022-09-27T07:09:15.617Z,14.64
2022-09-27T07:10:18.429Z,14.76
2022-09-27T07:11:23.788Z,14.74
2022-09-27T07:12:26.425Z,14.64
2022-09-27T07:13:32.979Z,14.62
2022-09-27T07:14:36.085Z,14.59
2022-09-27T07:15:41.701Z,14.44
2022-09-27T07:16:45.774Z,14.68
2022-09-27T07:18:00.144Z,14.70
2022-09-27T07:19:02.793Z,14.74
2022-09-27T07:20:06.152Z,14.62
2022-09-27T07:21:09.381Z,14.66
2022-09-27T07:22:11.990Z,14.54
2022-09-27T07:23:15.013Z,14.61
2022-09-27T07:24:17.723Z,14.55
2022-09-27T07:25:20.492Z,14.50
2022-09-27T07:26:23.269Z,14.64
2022-09-27T07:27:26.809Z,14.45
2022-09-27T07:28:29.416Z,14.47
2022-09-27T07:29:32.740Z,14.65
2022-09-27T07:30:37.277Z,14.78
2022-09-27T07:31:40.106Z,14.82
2022-09-27T07:32:43.642Z,14.93
2022-09-27T07:33:46.307Z,14.95
2022-09-27T07:34:48.953Z,15.14
2022-09-27T07:35:51.815Z,15.33
2022-09-27T07:36:59.888Z,15.12
2022-09-27T07:38:03.916Z,15.18
2022-09-27T07:39:07.116Z,15.11
2022-09-27T07:40:10.813Z,15.08
2022-09-27T07:41:15.010Z,15.18
2022-09-27T07:42:17.606Z,15.30
2022-09-27T07:43:20.817Z,15.36
2022-09-27T07:44:23.498Z,15.04
2022-09-27T07:45:26.839Z,15.31
2022-09-27T07:46:31.094Z,15.52
2022-09-27T07:47:34.793Z,15.65
2022-09-27T07:48:37.419Z,15.56
2022-09-27T07:49:40.154Z,15.51
2022-09-27T07:50:43.308Z,15.72
2022-09-27T07:51:46.257Z,15.93
2022-09-27T07:52:52.628Z,16.17
2022-09-27T07:53:55.224Z,16.04
2022-09-27T07:54:59.314Z,15.97
2022-09-27T07:56:02.185Z,16.11
2022-09-27T07:57:05.008Z,16.16
2022-09-27T07:58:10.761Z,16.27
2022-09-27T07:59:13.600Z,16.27
2022-09-27T08:00:20.157Z,16.28
2022-09-27T08:01:22.957Z,16.43
2022-09-27T08:02:25.671Z,16.49
2022-09-27T08:03:29.020Z,16.78
2022-09-27T08:04:31.699Z,16.47
2022-09-27T08:05:36.369Z,16.94
2022-09-27T08:07:41.925Z,17.41
2022-09-27T08:08:46.162Z,17.72
2022-09-27T08:09:48.769Z,18.08
2022-09-27T08:10:51.326Z,18.33
2022-09-27T08:11:58.759Z,18.42
2022-09-27T08:13:03.724Z,17.83
2022-09-27T08:14:06.271Z,17.86
2022-09-27T08:15:09.586Z,17.42
2022-09-27T08:16:12.432Z,17.01
2022-09-27T08:17:15.609Z,16.65
2022-09-27T08:18:18.688Z,16.55
2022-09-27T08:19:21.770Z,16.23
2022-09-27T08:20:24.507Z,16.05
2022-09-27T08:21:27.172Z,15.93
2022-09-27T08:22:29.760Z,15.77
2022-09-27T08:23:32.380Z,15.66
2022-09-27T08:24:35.347Z,15.48
2022-09-27T08:25:38.154Z,15.45
2022-09-27T08:26:40.994Z,15.39
2022-09-27T08:27:43.656Z,15.35
2022-09-27T08:28:48.075Z,15.04
2022-09-27T08:29:50.875Z,15.25
2022-09-27T08:30:53.864Z,15.19
2022-09-27T08:31:56.425Z,15.04
2022-09-27T08:33:00.667Z,14.81
2022-09-27T08:34:03.565Z,14.58
2022-09-27T08:35:07.620Z,14.67
2022-09-27T08:36:13.578Z,14.75
2022-09-27T08:37:16.375Z,14.86
2022-09-27T08:38:19.029Z,14.75
2022-09-27T08:39:22.928Z,14.65
2022-09-27T08:40:37.276Z,14.81
2022-09-27T08:41:52.074Z,14.96
2022-09-27T08:43:21.513Z,15.05
2022-09-27T08:44:35.994Z,14.97
2022-09-27T08:46:14.591Z,15.28
2022-09-27T08:47:53.320Z,15.08
2022-09-27T08:49:05.817Z,15.20
2022-09-27T08:50:44.782Z,15.24
2022-09-27T08:51:52.739Z,15.20
2022-09-27T08:53:26.660Z,15.04
2022-09-27T08:54:32.174Z,15.06
2022-09-27T08:55:42.275Z,14.91
2022-09-27T08:56:45.491Z,14.84
2022-09-27T08:57:57.475Z,14.83
2022-09-27T08:59:13.923Z,14.65
2022-09-27T09:00:17.017Z,14.63
2022-09-27T09:01:20.444Z,14.58
2022-09-27T09:02:26.397Z,14.31
2022-09-27T09:03:34.006Z,14.43
2022-09-27T09:04:40.077Z,14.43
2022-09-27T09:05:42.881Z,14.56
2022-09-27T09:07:04.199Z,14.61
2022-09-27T09:08:19.836Z,14.59
2022-09-27T09:09:40.937Z,14.64
2022-09-27T09:11:01.743Z,14.65
2022-09-27T09:12:42.011Z,14.42
2022-09-27T09:14:08.235Z,14.38
2022-09-27T09:15:17.151Z,14.67
2022-09-27T09:16:35.499Z,14.68
2022-09-27T09:17:51.629Z,14.54
2022-09-27T09:19:12.945Z,14.51
2022-09-27T09:20:52.946Z,14.32
2022-09-27T09:22:05.139Z,14.15
2022-09-27T09:23:39.946Z,14.27
2022-09-27T09:24:45.568Z,14.29
2022-09-27T09:26:03.514Z,14.25
2022-09-27T09:27:24.656Z,14.37
2022-09-27T09:28:51.286Z,14.33
2022-09-27T09:30:06.267Z,14.38
2022-09-27T09:31:17.753Z,14.42
2022-09-27T09:32:29.030Z,14.19
2022-09-27T09:33:57.419Z,14.50
2022-09-27T09:35:12.407Z,14.79
2022-09-27T09:36:32.868Z,14.79
2022-09-27T09:37:53.858Z,14.73
2022-09-27T09:39:05.731Z,14.82
2022-09-27T09:40:29.194Z,14.50
2022-09-27T09:41:52.075Z,14.55
2022-09-27T09:43:07.445Z,14.39
2022-09-27T09:44:24.372Z,14.19
2022-09-27T09:45:34.067Z,14.19
2022-09-27T09:46:45.555Z,14.37
2022-09-27T09:48:28.076Z,14.49
2022-09-27T09:49:43.321Z,14.25
2022-09-27T09:50:49.778Z,14.27
2022-09-27T09:51:57.513Z,14.48
2022-09-27T09:53:23.366Z,14.48
2022-09-27T09:54:49.218Z,14.68
2022-09-27T09:56:18.433Z,14.77
2022-09-27T09:57:25.736Z,14.71
2022-09-27T09:58:35.218Z,14.75
2022-09-27T09:59:58.617Z,14.95
2022-09-27T10:01:30.993Z,14.74
2022-09-27T10:02:39.950Z,14.78
2022-09-27T10:03:42.629Z,14.55
2022-09-27T10:04:45.305Z,14.52
2022-09-27T10:05:48.258Z,14.51
2022-09-27T10:06:52.325Z,14.53
2022-09-27T10:08:01.048Z,14.34
2022-09-27T10:09:03.976Z,14.31
2022-09-27T10:10:07.961Z,14.37
2022-09-27T10:11:21.771Z,14.48
2022-09-27T10:12:24.566Z,14.43
2022-09-27T10:13:28.564Z,14.28
2022-09-27T10:14:32.899Z,14.36
2022-09-27T10:15:36.441Z,14.34
2022-09-27T10:16:42.729Z,14.49
2022-09-27T10:17:51.689Z,14.48
2022-09-27T10:19:00.449Z,14.29
2022-09-27T10:20:07.107Z,14.26
2022-09-27T10:21:21.103Z,14.32
2022-09-27T10:22:37.954Z,14.49
2022-09-27T10:24:18.184Z,14.53
2022-09-27T10:25:21.746Z,14.44
2022-09-27T10:26:25.126Z,14.52
2022-09-27T10:27:29.092Z,14.55
2022-09-27T10:28:34.677Z,14.42
2022-09-27T10:29:39.385Z,14.48
2022-09-27T10:30:42.144Z,14.51
2022-09-27T10:31:48.088Z,14.55
2022-09-27T10:32:54.029Z,14.40
2022-09-27T10:34:05.700Z,14.30
2022-09-27T10:35:30.371Z,14.21
2022-09-27T10:36:35.654Z,14.36
2022-09-27T10:37:38.404Z,14.20
2022-09-27T10:38:56.209Z,14.26
2022-09-27T10:39:58.784Z,14.16
2022-09-27T10:41:28.582Z,14.34
2022-09-27T10:42:38.070Z,14.10
2022-09-27T10:43:40.944Z,14.23
2022-09-27T10:44:43.984Z,14.38
2022-09-27T10:45:47.687Z,14.19
2022-09-27T10:46:53.537Z,14.17
2022-09-27T10:47:57.043Z,14.16
2022-09-27T10:49:27.415Z,14.14
2022-09-27T10:50:50.269Z,14.16
2022-09-27T10:52:03.535Z,14.08
2022-09-27T10:53:12.206Z,13.99
2022-09-27T10:54:23.896Z,14.07
2022-09-27T10:55:28.036Z,14.10
2022-09-27T10:56:35.240Z,14.07
2022-09-27T10:57:41.789Z,13.99
2022-09-27T10:58:47.204Z,13.94
2022-09-27T10:59:59.114Z,13.98
2022-09-27T11:01:12.534Z,14.04
2022-09-27T11:02:32.440Z,14.04
2022-09-27T11:03:47.222Z,13.97
2022-09-27T11:05:15.228Z,14.10
2022-09-27T11:06:29.947Z,14.43
2022-09-27T11:07:32.715Z,14.46
2022-09-27T11:08:36.050Z,14.63
2022-09-27T11:09:54.811Z,14.65
2022-09-27T11:11:20.178Z,14.80
2022-09-27T11:12:23.315Z,14.92
2022-09-27T11:13:26.018Z,14.95
2022-09-27T11:14:32.240Z,15.32
2022-09-27T11:15:53.044Z,15.60
2022-09-27T11:16:55.522Z,15.61
2022-09-27T11:18:13.016Z,15.72
2022-09-27T11:19:41.880Z,15.73
2022-09-27T11:20:59.596Z,15.81
2022-09-27T11:22:02.706Z,15.82
2022-09-27T11:23:25.453Z,15.80
2022-09-27T11:24:39.810Z,15.69
2022-09-27T11:26:01.267Z,15.71
2022-09-27T11:27:37.359Z,15.78
2022-09-27T11:28:58.833Z,15.68
2022-09-27T11:30:15.263Z,15.36
2022-09-27T11:31:36.544Z,15.42
2022-09-27T11:32:50.337Z,15.48
2022-09-27T11:34:04.716Z,15.57
2022-09-27T11:35:26.846Z,15.69
2022-09-27T11:36:41.762Z,15.68
2022-09-27T11:37:50.556Z,16.17
2022-09-27T11:39:22.762Z,16.23
2022-09-27T11:40:45.372Z,16.17
2022-09-27T11:41:55.721Z,16.07
2022-09-27T11:43:18.211Z,16.00
2022-09-27T11:44:21.477Z,16.11
2022-09-27T11:46:14.176Z,16.25
2022-09-27T11:47:34.259Z,16.12
2022-09-27T11:49:11.089Z,15.84
2022-09-27T11:50:23.720Z,15.65
2022-09-27T11:51:38.276Z,15.73
2022-09-27T11:52:59.940Z,15.77
2022-09-27T11:54:25.183Z,15.91
2022-09-27T11:55:46.703Z,16.01
2022-09-27T11:57:09.659Z,16.07
2022-09-27T11:58:19.028Z,15.99
2022-09-27T12:00:00.206Z,16.00
2022-09-27T12:01:28.174Z,16.23
2022-09-27T12:02:58.323Z,16.10
2022-09-27T12:04:12.694Z,15.92
2022-09-27T12:05:32.759Z,15.87
2022-09-27T12:07:12.932Z,15.74
2022-09-27T12:08:18.376Z,15.44
2022-09-27T12:09:25.962Z,15.47
2022-09-27T12:10:29.091Z,15.43
2022-09-27T12:11:41.468Z,15.64
2022-09-27T12:12:51.796Z,15.47
2022-09-27T12:13:59.590Z,15.55
2022-09-27T12:15:29.814Z,15.50
2022-09-27T12:16:34.850Z,15.51
2022-09-27T12:17:42.927Z,15.36
2022-09-27T12:18:51.281Z,15.30
2022-09-27T12:20:02.193Z,15.47
2022-09-27T12:21:09.484Z,15.40
2022-09-27T12:22:16.717Z,15.45
2022-09-27T12:23:25.757Z,15.58
2022-09-27T12:24:30.733Z,15.50
2022-09-27T12:25:42.929Z,15.74
2022-09-27T12:26:45.656Z,15.60
2022-09-27T12:28:04.372Z,15.56
2022-09-27T12:29:17.650Z,15.44
2022-09-27T12:30:20.634Z,15.53
2022-09-27T12:31:30.732Z,15.55
2022-09-27T12:33:08.191Z,15.45
2022-09-27T12:34:22.463Z,15.16
2022-09-27T12:35:29.627Z,15.09
2022-09-27T12:36:38.884Z,15.16
2022-09-27T12:37:50.517Z,15.16
2022-09-27T12:39:25.978Z,15.40
2022-09-27T12:40:45.263Z,15.56
2022-09-27T12:42:02.503Z,15.39
2022-09-27T12:44:39.998Z,15.84
2022-09-27T12:45:45.320Z,16.09
2022-09-27T12:47:03.366Z,16.25
2022-09-27T12:48:33.262Z,16.42
2022-09-27T12:49:38.619Z,16.32
2022-09-27T12:50:46.174Z,16.54
2022-09-27T12:51:59.187Z,16.65
2022-09-27T12:53:14.549Z,16.92
2022-09-27T12:54:43.825Z,17.27
2022-09-27T12:56:09.215Z,17.80
2022-09-27T12:57:27.081Z,17.89
2022-09-27T12:58:38.927Z,17.31
2022-09-27T13:00:15.065Z,17.10
2022-09-27T13:01:29.126Z,17.19
2022-09-27T13:03:23.665Z,17.11
2022-09-27T13:04:43.810Z,16.61
2022-09-27T13:06:12.154Z,16.70
2022-09-27T13:07:35.391Z,16.36
2022-09-27T13:08:57.720Z,16.11
2022-09-27T13:10:41.671Z,16.30
2022-09-27T13:12:03.075Z,16.20
2022-09-27T13:13:10.819Z,16.08
2022-09-27T13:14:24.235Z,16.05
2022-09-27T13:15:32.623Z,16.18
2022-09-27T13:16:43.979Z,16.53
2022-09-27T13:17:56.434Z,16.69
2022-09-27T13:19:03.797Z,16.79
2022-09-27T13:20:33.447Z,16.88
2022-09-27T13:21:51.456Z,16.41
2022-09-27T13:24:03.784Z,16.15
2022-09-27T13:25:53.035Z,16.03
2022-09-27T13:27:01.181Z,15.98
2022-09-27T13:28:03.715Z,16.10
2022-09-27T13:29:24.550Z,16.23
2022-09-27T13:30:33.034Z,16.11
2022-09-27T13:31:53.830Z,15.97
2022-09-27T13:33:14.231Z,16.02
2022-09-27T13:34:54.030Z,16.19
2022-09-27T13:36:24.740Z,16.32
2022-09-27T13:37:36.257Z,16.36
2022-09-27T13:39:01.583Z,16.04
2022-09-27T13:40:16.280Z,15.95
2022-09-27T13:41:21.432Z,15.73
2022-09-27T13:43:07.247Z,15.59
2022-09-27T13:44:26.882Z,15.48
2022-09-27T13:45:33.959Z,15.48
2022-09-27T13:46:37.952Z,15.60
2022-09-27T13:47:47.615Z,15.69
2022-09-27T13:48:56.487Z,15.77
2022-09-27T13:50:17.905Z,15.69
2022-09-27T13:51:31.951Z,15.60
2022-09-27T13:52:39.875Z,15.62
2022-09-27T13:53:46.979Z,15.75
2022-09-27T13:54:58.019Z,15.59
2022-09-27T13:56:01.475Z,15.57
2022-09-27T13:57:07.666Z,15.47
2022-09-27T13:58:16.527Z,15.33
2022-09-27T13:59:32.867Z,14.93
2022-09-27T14:00:43.871Z,14.64
2022-09-27T14:01:52.699Z,14.43
2022-09-27T14:03:03.328Z,14.06
2022-09-27T14:04:26.120Z,13.80
2022-09-27T14:05:59.603Z,13.54
2022-09-27T14:07:04.149Z,13.31
2022-09-27T14:08:15.427Z,13.02
2022-09-27T14:09:21.932Z,13.07
2022-09-27T14:11:54.863Z,13.17
2022-09-27T14:13:00.345Z,13.11
2022-09-27T14:14:04.839Z,13.25
2022-09-27T14:15:19.418Z,13.29
2022-09-27T14:16:22.225Z,13.11
2022-09-27T14:17:26.454Z,13.10
2022-09-27T14:18:30.303Z,13.02
2022-09-27T14:19:33.577Z,12.97
2022-09-27T14:20:40.746Z,12.95
2022-09-27T14:21:43.528Z,12.93
2022-09-27T14:22:54.741Z,13.03
2022-09-27T14:24:25.865Z,12.91
2022-09-27T14:25:28.476Z,12.87
2022-09-27T14:26:31.080Z,13.15
2022-09-27T14:27:38.209Z,13.28
2022-09-27T14:28:42.597Z,13.30
2022-09-27T14:29:47.759Z,13.23
2022-09-27T14:31:17.998Z,13.23
2022-09-27T14:32:23.820Z,13.20
2022-09-27T14:33:32.069Z,13.10
2022-09-27T14:34:34.790Z,13.48
2022-09-27T14:36:07.199Z,13.38
2022-09-27T14:37:26.412Z,13.38
2022-09-27T14:38:38.244Z,13.47
2022-09-27T14:39:41.530Z,13.33
2022-09-27T14:40:54.252Z,13.08
2022-09-27T14:42:03.589Z,13.07
2022-09-27T14:43:06.305Z,13.04
2022-09-27T14:44:22.571Z,13.04
2022-09-27T14:45:40.353Z,13.10
2022-09-27T14:46:43.152Z,13.14
2022-09-27T14:47:48.412Z,13.11
2022-09-27T14:48:51.140Z,13.34
2022-09-27T14:50:02.064Z,13.47
2022-09-27T14:51:21.018Z,13.71
2022-09-27T14:52:30.070Z,13.92
2022-09-27T14:53:35.746Z,14.08
2022-09-27T14:54:38.312Z,14.27
2022-09-27T14:55:45.812Z,14.45
2022-09-27T14:56:52.775Z,14.53
2022-09-27T14:58:00.177Z,14.72
2022-09-27T14:59:05.810Z,14.82
2022-09-27T15:00:22.044Z,15.00
2022-09-27T15:01:24.980Z,14.99
2022-09-27T15:02:28.390Z,15.07
2022-09-27T15:03:38.441Z,15.22
2022-09-27T15:04:46.989Z,15.14
2022-09-27T15:05:49.830Z,14.98